Time;durP1;ratioP1;P1;durP2;ratioP2;P2;SDS_P1;SDS_P2;PMS_P1;PMS_P2;Temp;Humidity;BMP_temperature;BMP_pressure;BME280_temperature;BME280_humidity;BME280_pressure;Samples;Min_cycle;Max_cycle;Signal;HPM_P1;HPM_P2
2023/11/12 00:02:01;;;;;;;18.15;9.27;;;6.80;99.90;;;;;;4913366;29;20059;-77
2023/11/12 00:04:48;;;;;;;13.73;9.25;;;6.80;99.90;;;;;;4925549;29;20484;-77
2023/11/12 00:07:36;;;;;;;15.33;10.43;;;6.80;99.90;;;;;;4927152;29;20055;-77
2023/11/12 00:10:23;;;;;;;18.17;10.45;;;6.90;99.90;;;;;;4939343;29;20307;-77
2023/11/12 00:13:12;;;;;;;14.55;11.15;;;6.90;99.90;;;;;;4945062;29;20035;-77
2023/11/12 00:15:58;;;;;;;18.08;11.95;;;6.80;99.90;;;;;;4944505;29;20055;-76
2023/11/12 00:18:45;;;;;;;19.85;13.82;;;6.90;99.90;;;;;;4944715;29;20046;-76
2023/11/12 00:21:32;;;;;;;21.80;13.20;;;6.80;99.90;;;;;;4925478;29;20044;-76
2023/11/12 00:24:19;;;;;;;19.77;13.57;;;6.90;99.90;;;;;;4940079;29;20055;-76
2023/11/12 00:27:07;;;;;;;18.15;13.23;;;6.90;99.90;;;;;;4923123;29;20047;-76
2023/11/12 00:29:54;;;;;;;21.73;14.27;;;6.90;99.90;;;;;;4916213;29;20046;-76
2023/11/12 00:32:41;;;;;;;25.17;16.00;;;6.90;99.90;;;;;;4925186;29;20483;-76
2023/11/12 00:35:28;;;;;;;21.80;15.93;;;6.90;99.90;;;;;;4912731;29;20036;-76
2023/11/12 00:38:16;;;;;;;27.65;18.13;;;6.90;99.90;;;;;;4925184;29;20256;-76
2023/11/12 00:41:03;;;;;;;25.67;18.52;;;7.00;99.90;;;;;;4937962;29;20514;-76
2023/11/12 00:43:49;;;;;;;27.10;19.23;;;6.90;99.90;;;;;;4930919;29;20047;-76
2023/11/12 00:46:40;;;;;;;29.48;19.35;;;6.90;99.90;;;;;;4930846;29;20139;-76
2023/11/12 00:49:27;;;;;;;32.38;21.35;;;6.90;99.90;;;;;;4930890;29;20027;-76
2023/11/12 00:52:16;;;;;;;31.97;21.80;;;6.90;99.90;;;;;;4956524;29;20116;-76
2023/11/12 00:55:04;;;;;;;27.52;20.77;;;7.00;99.90;;;;;;4918424;29;20070;-76
2023/11/12 00:57:50;;;;;;;31.15;21.88;;;7.00;99.90;;;;;;4942965;29;20130;-76
2023/11/12 01:00:41;;;;;;;33.47;21.27;;;7.00;99.90;;;;;;4944435;29;20043;-76
2023/11/12 01:03:32;;;;;;;34.15;21.38;;;7.00;99.90;;;;;;4944238;29;20042;-76
2023/11/12 01:06:18;;;;;;;38.65;23.98;;;7.00;99.90;;;;;;4934760;29;20042;-76
2023/11/12 01:09:08;;;;;;;35.85;22.75;;;7.00;99.90;;;;;;4956732;29;20105;-76
2023/11/12 01:11:55;;;;;;;36.92;25.33;;;7.00;99.90;;;;;;4947053;29;20106;-76
2023/11/12 01:14:42;;;;;;;34.60;22.38;;;7.00;99.90;;;;;;4936622;29;20074;-75
2023/11/12 01:17:30;;;;;;;37.20;23.63;;;7.00;99.90;;;;;;4955688;29;20035;-76
2023/11/12 01:20:17;;;;;;;38.00;24.00;;;7.00;99.90;;;;;;4929834;29;20376;-76
2023/11/12 01:23:04;;;;;;;37.45;24.95;;;7.00;99.90;;;;;;4942652;29;20035;-76
2023/11/12 01:25:50;;;;;;;31.63;24.42;;;7.00;99.90;;;;;;4934656;29;20343;-76
2023/11/12 01:28:37;;;;;;;38.45;23.10;;;7.00;99.90;;;;;;4897293;29;20050;-76
2023/11/12 01:31:24;;;;;;;31.27;22.52;;;7.00;99.90;;;;;;4923607;29;20112;-76
2023/11/12 01:34:14;;;;;;;40.47;26.08;;;7.00;99.90;;;;;;4914379;29;20035;-76
2023/11/12 01:37:01;;;;;;;35.80;24.95;;;7.00;99.90;;;;;;4911408;29;20040;-77
2023/11/12 01:39:47;;;;;;;36.27;25.03;;;7.00;99.90;;;;;;4938663;29;20058;-76
2023/11/12 01:42:34;;;;;;;32.03;22.30;;;7.00;99.90;;;;;;4926676;29;20344;-75
2023/11/12 01:45:22;;;;;;;32.75;24.42;;;7.00;99.90;;;;;;4930630;29;20129;-76
2023/11/12 01:48:09;;;;;;;41.60;26.13;;;7.00;99.90;;;;;;4949468;28;20057;-76
2023/11/12 01:50:58;;;;;;;38.83;25.40;;;6.90;99.90;;;;;;4929735;29;20655;-76
2023/11/12 01:53:46;;;;;;;37.75;25.20;;;6.90;99.90;;;;;;4916937;29;20046;-75
2023/11/12 01:56:33;;;;;;;35.75;25.15;;;7.00;99.90;;;;;;4924227;29;20183;-76
2023/11/12 01:59:24;;;;;;;36.03;23.98;;;7.00;99.90;;;;;;4911834;29;20043;-75
2023/11/12 02:02:12;;;;;;;30.52;22.27;;;6.90;99.90;;;;;;4942766;29;20098;-76
2023/11/12 02:04:58;;;;;;;38.40;23.55;;;7.00;99.90;;;;;;4927871;29;20051;-76
2023/11/12 02:07:45;;;;;;;37.22;25.38;;;6.90;99.90;;;;;;4941053;29;20051;-76
2023/11/12 02:10:36;;;;;;;38.83;23.15;;;6.90;99.90;;;;;;4932605;29;20122;-76
2023/11/12 02:13:22;;;;;;;39.75;23.08;;;6.90;99.90;;;;;;4910905;29;20106;-76
2023/11/12 02:16:09;;;;;;;36.85;24.05;;;6.90;99.90;;;;;;4940121;29;20094;-76
2023/11/12 02:18:56;;;;;;;34.08;22.67;;;6.90;99.90;;;;;;4943161;29;20367;-76
2023/11/12 02:21:43;;;;;;;35.50;23.45;;;6.90;99.90;;;;;;4930959;29;20050;-76
2023/11/12 02:24:31;;;;;;;33.20;21.90;;;6.90;99.90;;;;;;4924737;29;20084;-76
2023/11/12 02:27:18;;;;;;;33.75;23.55;;;6.90;99.90;;;;;;4916501;29;20472;-76
2023/11/12 02:30:08;;;;;;;35.37;23.33;;;6.90;99.90;;;;;;4929878;29;20040;-76
2023/11/12 02:32:56;;;;;;;31.23;21.00;;;6.90;99.90;;;;;;4915809;29;20044;-76
2023/11/12 02:35:45;;;;;;;32.83;21.38;;;6.90;99.90;;;;;;4941357;29;20067;-75
2023/11/12 02:38:32;;;;;;;33.70;20.48;;;7.00;99.90;;;;;;4931433;29;20075;-76
2023/11/12 02:41:20;;;;;;;26.93;19.07;;;6.90;99.90;;;;;;4930830;29;20384;-76
2023/11/12 02:44:08;;;;;;;27.48;17.63;;;6.90;99.90;;;;;;4946610;29;20371;-76
2023/11/12 02:46:54;;;;;;;26.75;19.23;;;6.90;99.90;;;;;;4933734;29;20547;-76
2023/11/12 02:50:11;;;;;;;32.95;20.77;;;6.90;99.90;;;;;;4929497;29;20071;-76
2023/11/12 02:53:00;;;;;;;24.77;17.63;;;6.80;99.90;;;;;;4948056;29;20364;-75
2023/11/12 02:55:46;;;;;;;23.77;16.48;;;6.80;99.90;;;;;;4906638;29;20039;-76
2023/11/12 02:58:33;;;;;;;28.15;17.90;;;6.80;99.90;;;;;;4960164;29;20039;-76
2023/11/12 03:01:21;;;;;;;26.13;18.10;;;6.80;99.90;;;;;;4914224;29;20187;-76
2023/11/12 03:04:08;;;;;;;23.05;16.20;;;6.80;99.90;;;;;;4928555;29;20063;-75
2023/11/12 03:06:56;;;;;;;26.30;19.00;;;6.80;99.90;;;;;;4932835;29;20090;-76
2023/11/12 03:09:43;;;;;;;27.95;19.40;;;6.80;99.90;;;;;;4927690;29;20503;-76
2023/11/12 03:12:29;;;;;;;28.98;18.02;;;6.80;99.90;;;;;;4914298;29;20092;-76
2023/11/12 03:15:18;;;;;;;25.75;17.02;;;6.80;99.90;;;;;;4932575;29;20192;-76
2023/11/12 03:18:06;;;;;;;31.05;18.15;;;6.80;99.90;;;;;;4958980;29;20075;-76
2023/11/12 03:20:53;;;;;;;26.27;17.30;;;6.80;99.90;;;;;;4932194;29;20464;-75
2023/11/12 03:23:41;;;;;;;29.20;19.07;;;6.80;99.90;;;;;;4946325;29;20121;-75
2023/11/12 03:26:28;;;;;;;28.83;18.75;;;6.80;99.90;;;;;;4946053;29;20109;-76
2023/11/12 03:29:16;;;;;;;24.80;14.75;;;6.70;99.90;;;;;;4914550;29;20039;-76
2023/11/12 03:32:04;;;;;;;25.70;16.63;;;6.80;99.90;;;;;;4901734;29;20047;-76
2023/11/12 03:34:53;;;;;;;25.20;17.08;;;6.80;99.90;;;;;;4938457;29;20596;-75
2023/11/12 03:37:40;;;;;;;24.92;16.75;;;6.80;99.90;;;;;;4922875;29;20039;-76
2023/11/12 03:40:27;;;;;;;23.45;15.98;;;6.80;99.90;;;;;;4926470;29;20521;-76
2023/11/12 03:43:14;;;;;;;24.83;16.63;;;6.80;99.90;;;;;;4925907;29;20051;-76
2023/11/12 03:46:01;;;;;;;21.60;15.77;;;6.80;99.90;;;;;;4913279;29;20500;-75
2023/11/12 03:48:48;;;;;;;26.45;15.55;;;6.80;99.90;;;;;;4926299;29;20361;-76
2023/11/12 03:51:35;;;;;;;23.50;15.13;;;6.80;99.90;;;;;;4914847;29;20075;-76
2023/11/12 03:54:22;;;;;;;22.05;15.68;;;6.70;99.90;;;;;;4937535;29;20032;-76
2023/11/12 03:57:10;;;;;;;20.60;15.32;;;6.80;99.90;;;;;;4939302;29;20050;-76
2023/11/12 03:59:57;;;;;;;22.00;15.77;;;6.80;99.90;;;;;;4926118;29;20075;-76
2023/11/12 04:02:45;;;;;;;21.55;16.15;;;6.80;99.90;;;;;;4946286;29;20515;-76
2023/11/12 04:05:32;;;;;;;24.83;15.70;;;6.70;99.90;;;;;;4900765;29;20549;-76
2023/11/12 04:08:19;;;;;;;23.58;16.75;;;6.80;99.90;;;;;;4918866;29;20040;-76
2023/11/12 04:11:07;;;;;;;22.73;15.68;;;6.80;99.90;;;;;;4932107;29;20039;-76
2023/11/12 04:13:53;;;;;;;22.42;16.13;;;6.80;99.90;;;;;;4945498;29;20066;-76
2023/11/12 04:16:40;;;;;;;23.70;14.57;;;6.80;99.90;;;;;;4932054;29;20065;-76
2023/11/12 04:19:28;;;;;;;21.02;15.13;;;6.70;99.90;;;;;;4940868;29;20043;-76
2023/11/12 04:22:15;;;;;;;24.38;14.80;;;6.80;99.90;;;;;;4926779;29;20070;-76
2023/11/12 04:25:04;;;;;;;22.90;15.48;;;6.80;99.90;;;;;;4912624;29;20074;-76
2023/11/12 04:27:50;;;;;;;21.38;14.23;;;6.70;99.90;;;;;;4914755;29;20437;-76
2023/11/12 04:30:37;;;;;;;26.70;15.52;;;6.70;99.90;;;;;;4932227;29;20046;-76
2023/11/12 04:33:24;;;;;;;22.77;14.70;;;6.70;99.90;;;;;;4931726;29;20051;-76
2023/11/12 04:36:12;;;;;;;22.52;14.88;;;6.70;99.90;;;;;;4919547;29;20043;-76
2023/11/12 04:38:59;;;;;;;;;;;6.70;99.90;;;;;;4946154;29;20122;-76
2023/11/12 04:41:46;;;;;;;18.48;13.50;;;6.70;99.90;;;;;;4931168;29;19950;-76
2023/11/12 04:44:33;;;;;;;20.50;14.07;;;6.70;99.90;;;;;;4931154;29;20043;-75
2023/11/12 04:47:21;;;;;;;24.17;15.05;;;6.70;99.90;;;;;;4944907;29;20071;-76
2023/11/12 04:50:09;;;;;;;19.58;14.10;;;6.70;99.90;;;;;;4926806;29;20369;-76
2023/11/12 04:52:55;;;;;;;17.65;13.73;;;6.60;99.90;;;;;;4925801;29;20040;-76
2023/11/12 04:55:42;;;;;;;25.27;14.48;;;6.60;99.90;;;;;;4926501;29;20102;-76
2023/11/12 04:58:29;;;;;;;20.33;13.73;;;6.60;99.90;;;;;;4944123;29;20063;-76
2023/11/12 05:01:17;;;;;;;18.17;14.77;;;6.70;99.90;;;;;;4929139;29;20042;-76
2023/11/12 05:04:05;;;;;;;20.50;14.18;;;6.70;99.90;;;;;;4930456;28;20439;-76
2023/11/12 05:06:51;;;;;;;17.83;12.63;;;6.70;99.90;;;;;;4935947;29;20452;-78
2023/11/12 05:09:38;;;;;;;17.75;13.38;;;6.70;99.90;;;;;;4943325;29;20046;-77
2023/11/12 05:12:25;;;;;;;20.57;13.10;;;6.60;99.90;;;;;;4924776;29;20047;-77
2023/11/12 05:15:13;;;;;;;19.33;13.15;;;6.60;99.90;;;;;;4905624;29;20282;-77
2023/11/12 05:18:05;;;;;;;18.92;13.45;;;6.60;99.90;;;;;;4927145;29;20055;-77
2023/11/12 05:20:53;;;;;;;18.98;13.07;;;6.50;99.90;;;;;;4917517;29;20047;-76
2023/11/12 05:23:42;;;;;;;19.45;13.93;;;6.50;99.90;;;;;;4930499;29;20039;-76
2023/11/12 05:26:31;;;;;;;17.33;13.85;;;6.40;99.90;;;;;;4929316;29;20046;-76
2023/11/12 05:29:19;;;;;;;20.98;15.30;;;6.40;99.90;;;;;;4899445;29;20031;-77
2023/11/12 05:32:05;;;;;;;17.23;13.13;;;6.30;99.90;;;;;;4944665;28;20039;-76
2023/11/12 05:34:51;;;;;;;23.80;14.02;;;6.30;99.90;;;;;;4930447;29;20038;-76
2023/11/12 05:37:39;;;;;;;22.17;13.10;;;6.40;99.90;;;;;;4924391;29;20031;-76
2023/11/12 05:40:25;;;;;;;15.60;12.68;;;6.40;99.90;;;;;;4938494;29;20066;-77
2023/11/12 05:43:11;;;;;;;17.10;12.75;;;6.40;99.90;;;;;;4930665;29;20039;-77
2023/11/12 05:45:58;;;;;;;19.30;12.48;;;6.40;99.90;;;;;;4930367;29;20043;-77
2023/11/12 05:48:45;;;;;;;19.77;12.63;;;6.30;99.90;;;;;;4926431;29;20039;-77
2023/11/12 05:51:32;;;;;;;24.87;13.43;;;6.20;99.90;;;;;;4924809;29;20130;-77
2023/11/12 05:54:18;;;;;;;20.13;13.20;;;6.20;99.90;;;;;;4936655;29;20039;-78
2023/11/12 05:57:06;;;;;;;17.45;13.00;;;6.10;99.90;;;;;;4923876;29;20039;-78
2023/11/12 05:59:54;;;;;;;21.48;13.65;;;6.10;99.90;;;;;;4911487;29;20044;-77
2023/11/12 06:02:41;;;;;;;20.13;11.77;;;6.00;99.90;;;;;;4911188;29;20122;-76
2023/11/12 06:05:28;;;;;;;15.63;12.35;;;6.10;99.90;;;;;;4904807;29;20127;-76
2023/11/12 06:08:15;;;;;;;13.63;10.88;;;6.10;99.90;;;;;;4929808;29;20357;-76
2023/11/12 06:11:05;;;;;;;14.98;11.10;;;6.10;99.90;;;;;;4919231;29;20047;-76
2023/11/12 06:13:51;;;;;;;15.15;10.60;;;6.20;99.90;;;;;;4940689;29;20528;-77
2023/11/12 06:16:37;;;;;;;14.40;9.82;;;6.00;99.90;;;;;;4926327;29;20131;-77
2023/11/12 06:19:25;;;;;;;15.75;9.65;;;6.00;99.90;;;;;;4901635;29;20036;-78
2023/11/12 06:22:12;;;;;;;15.95;10.57;;;6.10;99.90;;;;;;4937331;29;20103;-78
2023/11/12 06:24:59;;;;;;;13.35;9.77;;;6.10;99.90;;;;;;4922125;29;20113;-77
2023/11/12 06:27:47;;;;;;;15.85;10.15;;;6.10;99.90;;;;;;4915243;29;20058;-76
2023/11/12 06:30:33;;;;;;;14.43;9.43;;;6.10;99.90;;;;;;4915068;29;20457;-76
2023/11/12 06:33:21;;;;;;;16.42;9.60;;;6.10;99.90;;;;;;4943096;29;20468;-76
2023/11/12 06:36:11;;;;;;;15.15;10.05;;;6.10;99.90;;;;;;4921317;29;20040;-76
2023/11/12 06:38:58;;;;;;;16.27;9.73;;;6.00;99.90;;;;;;4913991;29;20050;-76
2023/11/12 06:41:45;;;;;;;12.98;9.20;;;6.00;99.90;;;;;;4915851;29;20047;-75
2023/11/12 06:44:36;;;;;;;14.20;8.65;;;6.00;99.90;;;;;;4895995;29;20127;-76
2023/11/12 06:47:23;;;;;;;13.45;9.45;;;5.90;99.90;;;;;;4894689;29;20087;-76
2023/11/12 06:50:09;;;;;;;14.32;9.40;;;5.90;99.90;;;;;;4920652;29;20119;-76
2023/11/12 06:52:57;;;;;;;18.00;9.13;;;5.90;99.90;;;;;;4896568;29;20035;-76
2023/11/12 06:55:44;;;;;;;13.05;8.68;;;5.90;99.90;;;;;;4909302;29;20036;-76
2023/11/12 06:58:31;;;;;;;14.02;8.20;;;5.90;99.90;;;;;;4897068;29;20048;-77
2023/11/12 07:01:18;;;;;;;13.13;7.95;;;6.00;99.90;;;;;;4910985;29;20744;-76
2023/11/12 07:04:06;;;;;;;13.93;7.85;;;6.00;99.90;;;;;;4912995;29;20477;-76
2023/11/12 07:06:54;;;;;;;10.75;7.85;;;6.00;99.90;;;;;;4917357;29;20074;-76
2023/11/12 07:09:41;;;;;;;10.07;7.00;;;6.00;99.90;;;;;;4913608;29;20104;-75
2023/11/12 07:12:30;;;;;;;15.30;8.47;;;6.00;99.90;;;;;;4926331;29;20032;-76
2023/11/12 07:15:18;;;;;;;12.27;7.72;;;6.00;99.90;;;;;;4907680;29;20359;-76
2023/11/12 07:18:05;;;;;;;13.32;7.18;;;5.90;99.90;;;;;;4896374;29;20477;-76
2023/11/12 07:20:52;;;;;;;11.57;7.88;;;5.90;99.90;;;;;;4908603;29;20036;-76
2023/11/12 07:23:40;;;;;;;9.50;7.00;;;5.90;99.90;;;;;;4916830;29;20075;-76
2023/11/12 07:26:27;;;;;;;9.20;6.97;;;6.00;99.90;;;;;;4926268;29;20043;-76
2023/11/12 07:29:15;;;;;;;8.20;6.50;;;6.00;99.90;;;;;;4918527;29;20069;-76
2023/11/12 07:32:02;;;;;;;11.60;7.55;;;6.10;99.90;;;;;;4927489;29;20047;-76
2023/11/12 07:34:49;;;;;;;12.73;7.53;;;6.10;99.90;;;;;;4913347;29;20079;-76
2023/11/12 07:37:36;;;;;;;10.18;6.97;;;6.10;99.90;;;;;;4921084;29;20063;-76
2023/11/12 07:40:23;;;;;;;10.50;7.18;;;6.20;99.90;;;;;;4946156;29;20059;-75
2023/11/12 07:43:10;;;;;;;10.90;6.85;;;6.20;99.90;;;;;;4932160;29;20464;-76
2023/11/12 07:45:57;;;;;;;13.80;7.15;;;6.20;99.90;;;;;;4943480;29;20388;-75
2023/11/12 07:48:44;;;;;;;12.25;8.50;;;6.20;99.90;;;;;;4926895;29;20063;-75
2023/11/12 07:51:30;;;;;;;10.57;7.87;;;6.30;99.90;;;;;;4911424;29;20035;-76
2023/11/12 07:54:18;;;;;;;12.95;7.82;;;6.30;99.90;;;;;;4932107;29;20054;-76
2023/11/12 07:57:05;;;;;;;13.48;8.15;;;6.40;99.90;;;;;;4931085;29;20047;-76
2023/11/12 07:59:53;;;;;;;13.95;7.97;;;6.40;99.90;;;;;;4933066;29;20420;-76
2023/11/12 08:02:40;;;;;;;11.50;7.43;;;6.50;99.90;;;;;;4934981;29;20071;-76
2023/11/12 08:05:27;;;;;;;10.38;7.22;;;6.50;99.90;;;;;;4916346;29;20048;-76
2023/11/12 08:08:14;;;;;;;12.20;7.17;;;6.50;99.90;;;;;;4915089;29;20119;-76
2023/11/12 08:11:02;;;;;;;10.68;7.50;;;6.50;99.90;;;;;;4912842;29;20435;-76
2023/11/12 08:13:49;;;;;;;11.40;7.37;;;6.50;99.90;;;;;;4915982;29;20106;-77
2023/11/12 08:16:36;;;;;;;11.07;7.15;;;6.60;99.90;;;;;;4957998;29;20126;-76
2023/11/12 08:19:23;;;;;;;8.95;7.45;;;6.60;99.90;;;;;;4945004;29;20043;-76
2023/11/12 08:22:11;;;;;;;11.13;7.68;;;6.60;99.90;;;;;;4932003;29;20038;-76
2023/11/12 08:24:58;;;;;;;12.20;7.67;;;6.70;99.90;;;;;;4923969;29;20054;-76
2023/11/12 08:27:45;;;;;;;12.93;7.23;;;6.70;99.90;;;;;;4958029;29;20122;-77
2023/11/12 08:30:32;;;;;;;15.65;7.40;;;6.80;99.90;;;;;;4930307;29;20075;-77
2023/11/12 08:33:20;;;;;;;10.63;6.50;;;6.80;99.90;;;;;;4944707;29;20094;-77
2023/11/12 08:36:09;;;;;;;11.45;7.15;;;6.80;99.90;;;;;;4930370;29;20047;-76
2023/11/12 08:38:56;;;;;;;7.47;6.13;;;6.80;99.90;;;;;;4944550;28;20349;-76
2023/11/12 08:41:46;;;;;;;8.60;6.70;;;6.80;99.90;;;;;;4930859;29;20062;-77
2023/11/12 08:44:34;;;;;;;11.02;6.95;;;6.90;99.90;;;;;;4930301;29;20047;-76
2023/11/12 08:47:21;;;;;;;10.38;7.10;;;6.80;99.90;;;;;;4941695;29;20051;-76
2023/11/12 08:50:09;;;;;;;14.23;7.10;;;6.80;99.90;;;;;;4957228;29;20177;-76
2023/11/12 08:52:56;;;;;;;10.18;6.65;;;6.80;99.90;;;;;;4945012;29;20035;-77
2023/11/12 08:55:44;;;;;;;10.75;7.03;;;6.80;99.90;;;;;;4912563;29;20039;-76
2023/11/12 08:58:31;;;;;;;9.57;7.43;;;6.90;99.90;;;;;;4912558;29;20039;-76
2023/11/12 09:01:19;;;;;;;10.77;7.30;;;6.90;99.90;;;;;;4912507;29;20054;-76
2023/11/12 09:04:07;;;;;;;9.03;6.97;;;6.90;99.90;;;;;;4933819;29;20135;-76
2023/11/12 09:06:54;;;;;;;;;;;7.00;99.90;;;;;;4912557;29;20915;-76
2023/11/12 09:09:41;;;;;;;8.95;6.78;;;7.00;99.90;;;;;;4925238;29;20243;-76
2023/11/12 09:12:28;;;;;;;8.65;6.65;;;7.00;99.90;;;;;;4913674;29;20050;-75
2023/11/12 09:15:16;;;;;;;12.85;7.15;;;7.00;99.90;;;;;;4919710;29;20330;-76
2023/11/12 09:18:02;;;;;;;11.07;6.47;;;7.00;99.90;;;;;;4942486;29;20043;-75
2023/11/12 09:20:51;;;;;;;13.30;7.05;;;6.90;99.90;;;;;;4930336;29;20345;-76
2023/11/12 09:23:40;;;;;;;10.18;6.60;;;7.00;99.90;;;;;;4922759;29;20429;-75
2023/11/12 09:26:27;;;;;;;10.90;6.18;;;7.00;99.90;;;;;;4930034;29;20049;-77
2023/11/12 09:29:14;;;;;;;9.70;5.83;;;7.00;99.90;;;;;;4930001;29;20464;-77
2023/11/12 09:32:03;;;;;;;9.27;6.50;;;7.30;99.90;;;;;;4956735;29;20039;-77
2023/11/12 09:34:50;;;;;;;10.10;7.00;;;7.40;99.90;;;;;;4953897;28;20036;-76
2023/11/12 09:37:38;;;;;;;10.47;7.13;;;7.50;99.90;;;;;;4947689;29;20051;-77
2023/11/12 09:40:29;;;;;;;9.67;7.07;;;7.70;99.90;;;;;;4929653;29;20295;-77
2023/11/12 09:43:17;;;;;;;7.68;6.03;;;7.80;99.90;;;;;;4942968;29;20820;-78
2023/11/12 09:46:08;;;;;;;11.70;7.03;;;7.90;99.90;;;;;;4917331;29;20481;-77
2023/11/12 09:48:55;;;;;;;8.60;5.85;;;7.80;99.90;;;;;;4918843;29;20039;-77
2023/11/12 09:51:42;;;;;;;8.57;5.80;;;8.00;99.90;;;;;;4947280;29;20464;-77
2023/11/12 09:54:30;;;;;;;10.80;6.25;;;8.10;99.90;;;;;;4916129;29;20039;-77
2023/11/12 09:57:18;;;;;;;10.10;5.93;;;8.10;99.90;;;;;;4935867;29;20054;-77
2023/11/12 10:00:07;;;;;;;7.32;5.70;;;8.10;99.90;;;;;;4935833;28;20500;-77
2023/11/12 10:02:54;;;;;;;7.13;5.63;;;8.10;99.90;;;;;;4930703;29;20075;-77
2023/11/12 10:05:41;;;;;;;9.33;5.60;;;8.10;99.90;;;;;;4917036;29;20103;-76
2023/11/12 10:08:29;;;;;;;9.27;5.68;;;8.10;99.90;;;;;;4916718;29;20267;-76
2023/11/12 10:11:22;;;;;;;7.15;4.90;;;8.10;99.90;;;;;;4917668;29;20071;-76
2023/11/12 10:14:15;;;;;;;6.90;5.03;;;8.00;99.90;;;;;;4934111;29;20474;-76
2023/11/12 10:17:06;;;;;;;9.15;4.20;;;8.20;99.90;;;;;;4923040;29;20512;-75
2023/11/12 10:19:57;;;;;;;7.18;4.28;;;8.10;99.90;;;;;;4922198;29;20039;-76
2023/11/12 10:22:44;;;;;;;8.30;4.85;;;8.10;99.90;;;;;;4936448;29;20043;-76
2023/11/12 10:25:47;;;;;;;13.60;6.72;;;8.00;99.90;;;;;;4927767;29;20487;-76
2023/11/12 10:28:34;;;;;;;8.35;5.15;;;8.10;99.90;;;;;;4937014;29;20050;-75
2023/11/12 10:31:42;;;;;;;9.73;3.90;;;8.60;99.90;;;;;;4942266;29;20484;-76
2023/11/12 10:34:34;;;;;;;5.93;3.83;;;9.10;99.90;;;;;;4930383;29;20059;-77
2023/11/12 10:37:21;;;;;;;5.90;3.55;;;9.80;99.90;;;;;;4929209;29;20039;-76
2023/11/12 10:40:08;;;;;;;5.40;3.17;;;10.40;99.90;;;;;;4947351;29;20105;-76
2023/11/12 10:43:06;;;;;;;9.68;3.97;;;10.90;99.90;;;;;;4961984;29;20662;-76
2023/11/12 10:45:58;;;;;;;5.70;3.75;;;10.70;99.90;;;;;;4935867;29;20039;-75
2023/11/12 10:48:45;;;;;;;4.10;3.00;;;10.50;99.90;;;;;;4948978;29;20046;-76
2023/11/12 10:51:35;;;;;;;5.80;3.50;;;10.50;99.90;;;;;;4934536;29;20035;-75
2023/11/12 10:54:23;;;;;;;6.70;3.50;;;10.40;99.90;;;;;;4921016;29;20641;-76
2023/11/12 10:57:11;;;;;;;7.53;3.42;;;9.90;99.90;;;;;;4930767;29;20069;-76
2023/11/12 11:00:00;;;;;;;7.05;3.30;;;9.60;99.90;;;;;;4946170;29;20066;-75
2023/11/12 11:02:48;;;;;;;5.43;3.33;;;9.30;99.90;;;;;;4933568;29;20086;-76
2023/11/12 11:05:35;;;;;;;9.93;3.83;;;9.20;99.90;;;;;;4937289;29;20035;-75
2023/11/12 11:08:23;;;;;;;6.57;3.55;;;9.10;99.90;;;;;;4917998;29;20039;-76
2023/11/12 11:11:09;;;;;;;5.05;3.50;;;8.90;99.90;;;;;;4933365;29;20035;-76
2023/11/12 11:14:20;;;;;;;8.75;3.30;;;8.80;99.90;;;;;;4945206;29;20535;-76
2023/11/12 11:17:08;;;;;;;3.85;2.72;;;8.70;99.90;;;;;;4947447;29;20047;-76
2023/11/12 11:19:56;;;;;;;6.00;3.10;;;8.70;99.90;;;;;;4927231;29;20118;-75
2023/11/12 11:22:44;;;;;;;7.32;2.97;;;8.60;99.90;;;;;;4940106;29;20036;-75
2023/11/12 11:25:31;;;;;;;5.50;2.97;;;8.60;99.90;;;;;;4915960;29;20194;-76
2023/11/12 11:28:22;;;;;;;5.75;2.90;;;8.60;99.90;;;;;;4902198;29;20039;-76
2023/11/12 11:31:11;;;;;;;5.70;2.88;;;8.60;99.90;;;;;;4930769;29;20066;-75
2023/11/12 11:33:58;;;;;;;;;;;8.60;99.90;;;;;;4932197;29;20043;-76
2023/11/12 11:37:01;;;;;;;5.22;2.75;;;8.60;99.90;;;;;;4943232;29;19945;-76
2023/11/12 11:39:47;;;;;;;5.35;2.80;;;8.70;99.90;;;;;;4907028;29;20044;-75
2023/11/12 11:42:34;;;;;;;5.68;3.78;;;8.60;99.90;;;;;;4918708;29;20043;-76
2023/11/12 11:45:21;;;;;;;4.38;2.72;;;8.60;99.90;;;;;;4958477;29;20077;-76
2023/11/12 11:48:09;;;;;;;5.30;2.80;;;8.60;99.90;;;;;;4931487;29;20051;-76
2023/11/12 11:50:57;;;;;;;3.92;2.85;;;8.60;99.90;;;;;;4916433;29;20039;-76
2023/11/12 11:53:45;;;;;;;4.82;2.70;;;8.70;99.90;;;;;;4944686;29;20422;-76
2023/11/12 11:56:33;;;;;;;7.97;3.28;;;8.70;99.90;;;;;;4915957;29;20039;-75
2023/11/12 11:59:20;;;;;;;5.13;3.00;;;8.80;99.90;;;;;;4932759;29;20039;-76
2023/11/12 12:02:15;;;;;;;4.78;2.60;;;8.80;99.90;;;;;;4931036;29;20050;-76
2023/11/12 12:05:06;;;;;;;5.47;2.65;;;8.80;99.90;;;;;;4934920;29;20045;-76
2023/11/12 12:08:03;;;;;;;5.03;2.80;;;8.80;99.90;;;;;;4912669;29;20193;-76
2023/11/12 12:10:51;;;;;;;7.15;2.63;;;8.80;99.90;;;;;;4927125;29;20067;-76
2023/11/12 12:13:40;;;;;;;6.20;2.35;;;8.90;99.90;;;;;;4925975;29;20483;-76
2023/11/12 12:16:32;;;;;;;5.57;2.63;;;8.90;99.90;;;;;;4930797;29;20267;-76
2023/11/12 12:19:21;;;;;;;5.30;3.08;;;8.90;99.90;;;;;;4943843;29;20081;-76
2023/11/12 12:22:08;;;;;;;7.70;3.88;;;8.90;99.90;;;;;;4944726;29;20050;-76
2023/11/12 12:24:56;;;;;;;6.03;2.87;;;8.90;99.90;;;;;;4939864;29;20039;-76
2023/11/12 12:27:53;;;;;;;5.65;2.67;;;8.80;99.90;;;;;;4916478;29;20039;-76
2023/11/12 12:30:41;;;;;;;4.90;2.55;;;8.70;99.90;;;;;;4926151;29;20036;-76
2023/11/12 12:33:30;;;;;;;5.22;3.35;;;8.70;99.90;;;;;;4925023;29;20043;-75
2023/11/12 12:36:18;;;;;;;3.80;2.63;;;8.80;99.90;;;;;;4937933;29;20158;-76
2023/11/12 12:39:14;;;;;;;6.63;2.50;;;8.80;99.90;;;;;;4917737;29;20523;-75
2023/11/12 12:42:05;;;;;;;8.98;2.85;;;8.80;99.90;;;;;;4927005;29;20268;-76
2023/11/12 12:44:52;;;;;;;4.90;2.67;;;8.80;99.90;;;;;;4913198;29;20039;-76
2023/11/12 12:47:41;;;;;;;5.88;2.78;;;8.80;99.90;;;;;;4925212;29;20051;-76
2023/11/12 12:50:31;;;;;;;4.88;2.60;;;8.70;99.90;;;;;;4936752;29;20046;-76
2023/11/12 12:53:23;;;;;;;5.10;2.30;;;8.70;99.90;;;;;;4924951;29;20043;-76
2023/11/12 12:56:14;;;;;;;4.82;2.50;;;8.80;99.90;;;;;;4927280;29;20038;-76
2023/11/12 12:59:01;;;;;;;;;;;8.80;99.90;;;;;;4919268;29;20099;-77
2023/11/12 13:01:49;;;;;;;6.90;3.10;;;8.70;99.90;;;;;;4944201;29;19960;-76
2023/11/12 13:04:36;;;;;;;18.92;6.15;;;8.80;99.90;;;;;;4957121;29;20461;-76
2023/11/12 13:07:24;;;;;;;5.22;2.22;;;8.80;99.90;;;;;;4941763;28;20413;-76
2023/11/12 13:10:15;;;;;;;;;;;8.80;99.90;;;;;;4917413;29;20042;-76
2023/11/12 13:13:04;;;;;;;6.50;2.72;;;8.70;99.90;;;;;;4929166;29;20027;-76
2023/11/12 13:15:51;;;;;;;5.78;2.17;;;8.70;99.90;;;;;;4930006;29;20101;-76
2023/11/12 13:18:40;;;;;;;5.95;2.22;;;8.60;99.90;;;;;;4942992;29;20043;-76
2023/11/12 13:21:28;;;;;;;4.78;2.35;;;8.60;99.90;;;;;;4917256;29;20074;-75
2023/11/12 13:24:16;;;;;;;7.10;2.65;;;8.60;99.90;;;;;;4911394;29;20043;-76
2023/11/12 13:27:06;;;;;;;4.28;2.85;;;8.60;99.90;;;;;;4924463;28;20071;-77
2023/11/12 13:29:53;;;;;;;5.15;3.20;;;8.60;99.90;;;;;;4926168;29;20035;-76
2023/11/12 13:32:41;;;;;;;6.00;3.10;;;8.60;99.90;;;;;;4925889;29;20101;-77
2023/11/12 13:35:30;;;;;;;8.15;3.88;;;8.60;99.90;;;;;;4932918;29;20067;-77
2023/11/12 13:38:18;;;;;;;7.70;3.40;;;8.60;99.90;;;;;;4956159;29;20046;-77
2023/11/12 13:41:10;;;;;;;7.05;3.47;;;8.50;99.90;;;;;;4923034;29;20126;-76
2023/11/12 13:43:58;;;;;;;5.75;3.67;;;8.60;99.90;;;;;;4931143;29;20038;-77
2023/11/12 13:46:45;;;;;;;4.75;3.17;;;8.60;99.90;;;;;;4930898;29;20055;-76
2023/11/12 13:49:34;;;;;;;7.55;3.45;;;8.60;99.90;;;;;;4943188;29;20054;-77
2023/11/12 13:52:22;;;;;;;10.45;5.10;;;8.60;99.90;;;;;;4918368;29;20043;-77
2023/11/12 13:55:17;;;;;;;7.53;3.17;;;8.60;99.90;;;;;;4930265;29;20043;-75
2023/11/12 13:58:06;;;;;;;4.93;3.10;;;8.60;99.90;;;;;;4928702;29;20067;-76
2023/11/12 14:00:53;;;;;;;6.55;3.80;;;8.60;99.90;;;;;;4920339;29;20480;-76
2023/11/12 14:03:40;;;;;;;5.57;3.63;;;8.60;99.90;;;;;;4937336;29;20368;-76
2023/11/12 14:06:27;;;;;;;7.93;3.37;;;8.60;99.90;;;;;;4924191;29;20086;-76
2023/11/12 14:09:17;;;;;;;5.30;3.03;;;8.60;99.90;;;;;;4911434;29;20079;-77
2023/11/12 14:12:06;;;;;;;5.55;3.60;;;8.60;99.90;;;;;;4914229;29;20123;-76
2023/11/12 14:14:54;;;;;;;10.80;4.50;;;8.60;99.90;;;;;;4941432;29;20039;-77
2023/11/12 14:17:43;;;;;;;8.18;3.95;;;8.60;99.90;;;;;;4925100;29;20043;-76
2023/11/12 14:20:30;;;;;;;7.82;4.40;;;8.60;99.90;;;;;;4929218;29;20035;-76
2023/11/12 14:23:17;;;;;;;7.20;4.67;;;8.50;99.90;;;;;;4928798;29;20514;-77
2023/11/12 14:26:05;;;;;;;7.28;3.42;;;8.60;99.90;;;;;;4942105;29;20047;-76
2023/11/12 14:28:53;;;;;;;7.70;3.38;;;8.60;99.90;;;;;;4922986;29;20035;-76
2023/11/12 14:31:40;;;;;;;6.60;3.60;;;8.60;99.90;;;;;;4923288;29;20039;-76
2023/11/12 14:34:28;;;;;;;6.63;3.20;;;8.60;99.90;;;;;;4924131;29;20404;-76
2023/11/12 14:37:15;;;;;;;9.45;3.70;;;8.50;99.90;;;;;;4931619;29;20379;-76